createdAt,value
2019-01-24T09:22:40.546Z,14.22
2019-01-24T09:25:09.305Z,12.65
2019-01-24T09:27:39.926Z,12.52
2019-01-24T09:30:11.401Z,12.62
2019-01-24T09:32:39.952Z,14.91
2019-01-24T09:35:09.670Z,14.58
2019-01-24T09:37:38.274Z,13.42
2019-01-24T09:40:08.280Z,13.26
2019-01-24T09:42:36.855Z,12.99
2019-01-24T09:45:08.221Z,13.37
2019-01-24T09:47:36.775Z,13.41
2019-01-24T09:50:07.621Z,13.51
2019-01-24T09:52:36.192Z,13.23
2019-01-24T09:55:05.420Z,13.09
2019-01-24T09:57:34.052Z,13.09
2019-01-24T10:00:02.602Z,12.88
2019-01-24T10:02:31.181Z,12.71
2019-01-24T10:04:59.731Z,12.74
2019-01-24T10:07:28.312Z,12.81
2019-01-24T10:09:56.866Z,12.75
2019-01-24T10:12:25.435Z,12.71
2019-01-24T10:14:54.001Z,12.89
2019-01-24T10:17:22.566Z,13.06
2019-01-24T10:19:51.120Z,13.18
2019-01-24T10:22:19.681Z,13.31
2019-01-24T10:24:48.258Z,13.36
2019-01-24T10:27:16.832Z,13.37
2019-01-24T10:29:45.419Z,13.42
2019-01-24T10:32:15.079Z,13.39
2019-01-24T10:34:44.805Z,13.41
2019-01-24T10:37:13.438Z,13.39
2019-01-24T10:39:42.026Z,13.30
2019-01-24T10:42:10.595Z,11.92
2019-01-24T10:44:39.216Z,12.90
2019-01-24T10:47:07.797Z,12.53
2019-01-24T10:49:36.775Z,26.54
2019-01-24T10:52:05.584Z,13.13
2019-01-24T10:54:34.165Z,11.40
2019-01-24T10:57:02.825Z,11.94
2019-01-24T10:59:31.440Z,12.43
2019-01-24T11:02:00.008Z,12.81
2019-01-24T11:04:28.577Z,12.81
2019-01-24T11:06:57.215Z,12.97
2019-01-24T11:09:25.777Z,13.00
2019-01-24T11:11:54.363Z,13.04
2019-01-24T11:24:05.582Z,41.98
2019-01-24T11:26:34.150Z,43.36
2019-01-24T11:29:03.955Z,42.57
2019-01-24T11:31:32.478Z,47.27
2019-01-24T11:34:01.078Z,47.87
2019-01-24T11:36:29.637Z,47.43
2019-01-24T11:38:58.255Z,44.33
2019-01-24T11:41:26.822Z,42.85
2019-01-24T11:43:55.381Z,42.21
2019-01-24T11:46:23.973Z,44.89
2019-01-24T11:48:52.634Z,46.60
2019-01-24T11:51:21.232Z,46.80
2019-01-24T11:53:53.124Z,47.13
2019-01-24T11:56:20.187Z,48.06
2019-01-24T11:58:48.779Z,48.76
2019-01-24T12:01:19.927Z,46.47
2019-01-24T12:03:47.705Z,43.71
2019-01-24T12:06:16.646Z,42.15
2019-01-24T12:08:45.561Z,38.68
2019-01-24T12:11:14.946Z,38.82
2019-01-24T12:13:43.550Z,40.06
2019-01-24T12:16:12.186Z,40.78
2019-01-24T12:18:41.157Z,39.53
2019-01-24T12:21:09.724Z,41.94
2019-01-24T12:23:38.326Z,42.41
2019-01-24T12:26:07.341Z,38.39
2019-01-24T12:28:35.953Z,36.83
2019-01-24T12:31:04.850Z,34.43
2019-01-24T12:33:33.519Z,31.44
2019-01-24T12:36:02.122Z,32.37
2019-01-24T12:38:30.730Z,34.54
2019-01-24T12:40:59.320Z,35.82
2019-01-24T12:43:27.950Z,38.51
2019-01-24T12:45:56.534Z,34.81
2019-01-24T12:48:25.884Z,34.93
2019-01-24T12:50:54.614Z,34.26
2019-01-24T12:53:23.282Z,32.03
2019-01-24T12:55:52.227Z,30.42
2019-01-24T12:58:21.124Z,31.49
2019-01-24T13:00:50.599Z,31.32
2019-01-24T13:03:19.625Z,32.13
2019-01-24T13:05:48.291Z,32.79
2019-01-24T13:08:16.987Z,31.46
2019-01-24T13:10:45.592Z,33.17
2019-01-24T13:13:14.167Z,34.94
2019-01-24T13:15:42.784Z,37.02
2019-01-24T13:18:11.469Z,37.93
2019-01-24T13:20:40.048Z,35.82
2019-01-24T13:23:08.750Z,37.29
2019-01-24T13:25:37.424Z,36.65
2019-01-24T13:28:07.156Z,34.59
2019-01-24T13:34:16.945Z,36.57
2019-01-24T13:36:45.558Z,42.43
2019-01-24T13:44:02.273Z,38.93
2019-01-24T13:46:30.872Z,39.35
2019-01-24T13:48:59.944Z,40.73
2019-01-24T13:51:29.228Z,41.98
2019-01-24T13:53:58.848Z,41.30
2019-01-24T13:56:28.479Z,39.65
2019-01-24T13:58:57.114Z,41.40
2019-01-24T14:01:25.754Z,41.93
2019-01-24T14:04:06.746Z,43.02
2019-01-24T14:06:35.341Z,44.65
2019-01-24T14:09:05.832Z,48.47
2019-01-24T14:11:34.389Z,50.22
2019-01-24T14:14:02.944Z,50.66
2019-01-24T14:16:31.496Z,50.51
2019-01-24T14:19:00.078Z,50.79
2019-01-24T14:21:29.026Z,51.69
2019-01-24T14:23:57.596Z,51.97
2019-01-24T14:26:26.158Z,52.67
2019-01-24T14:28:54.739Z,52.94
2019-01-24T14:31:23.285Z,51.32
2019-01-24T14:33:51.883Z,51.44
2019-01-24T14:36:25.272Z,51.97
2019-01-24T14:38:50.792Z,53.10
2019-01-24T14:41:21.522Z,53.34
2019-01-24T14:43:52.136Z,52.98
2019-01-24T14:46:20.696Z,54.02
2019-01-24T14:48:49.253Z,56.71
2019-01-24T14:51:17.988Z,56.96
2019-01-24T14:53:46.550Z,57.31
2019-01-24T14:56:15.136Z,58.45
2019-01-24T14:58:43.691Z,59.34
2019-01-24T15:01:15.135Z,59.59
2019-01-24T15:03:43.702Z,59.83
2019-01-24T15:06:12.273Z,60.70
2019-01-24T15:08:40.822Z,61.17
2019-01-24T15:11:09.405Z,62.21
2019-01-24T15:13:51.968Z,62.68
2019-01-24T15:16:20.593Z,63.18
2019-01-24T15:18:49.907Z,63.69
2019-01-24T15:21:18.465Z,63.69
2019-01-24T15:23:47.081Z,63.14
2019-01-24T15:26:15.627Z,62.99
2019-01-24T15:28:44.181Z,63.32
2019-01-24T15:31:12.779Z,64.75
2019-01-24T15:33:41.336Z,65.56
2019-01-24T15:36:09.883Z,65.45
2019-01-24T15:38:38.565Z,65.37
2019-01-24T15:41:07.096Z,65.55
2019-01-24T15:43:35.711Z,65.42
2019-01-24T15:46:04.311Z,65.56
2019-01-24T15:48:32.851Z,65.50
2019-01-24T15:51:01.431Z,65.27
2019-01-24T15:53:30.037Z,65.39
2019-01-24T15:55:58.602Z,65.48
2019-01-24T15:58:27.143Z,65.84
2019-01-24T16:00:55.844Z,65.52
2019-01-24T16:03:24.424Z,65.52
2019-01-24T16:05:52.979Z,65.85
2019-01-24T16:08:21.561Z,65.66
2019-01-24T16:10:50.164Z,64.72
2019-01-24T16:13:18.719Z,64.63
2019-01-24T16:15:47.308Z,64.63
2019-01-24T16:18:16.073Z,65.12
2019-01-24T16:20:44.673Z,65.74
2019-01-24T16:23:13.236Z,65.78
2019-01-24T16:25:41.804Z,65.77
2019-01-24T16:28:10.398Z,65.86
2019-01-24T16:30:38.993Z,65.68
2019-01-24T16:33:08.526Z,65.79
2019-01-24T16:35:37.664Z,66.34
2019-01-24T16:38:09.483Z,66.34
2019-01-24T16:40:36.544Z,65.81
2019-01-24T16:43:05.230Z,66.00
2019-01-24T16:45:33.808Z,65.76
2019-01-24T16:48:02.364Z,66.03
2019-01-24T16:50:30.980Z,66.42
2019-01-24T16:52:59.545Z,65.89
2019-01-24T16:55:28.108Z,66.40
2019-01-24T16:57:56.707Z,66.45
2019-01-24T17:00:37.534Z,66.45
2019-01-24T17:03:06.148Z,66.13
2019-01-24T17:05:34.733Z,66.56
2019-01-24T17:08:03.288Z,66.57
2019-01-24T17:10:31.879Z,66.55
2019-01-24T17:13:00.446Z,66.52
2019-01-24T17:15:29.013Z,66.93
2019-01-24T17:17:57.593Z,67.05
2019-01-24T17:20:26.472Z,66.86
2019-01-24T17:22:55.048Z,66.69
2019-01-24T17:25:25.239Z,67.53
2019-01-24T17:27:54.123Z,67.93
2019-01-24T17:30:24.427Z,67.47
2019-01-24T17:32:53.362Z,67.26
2019-01-24T17:35:21.932Z,67.81
2019-01-24T17:37:50.490Z,68.17
2019-01-24T17:40:27.521Z,68.96
2019-01-24T17:42:56.079Z,67.86
2019-01-24T17:45:24.735Z,68.15
2019-01-24T17:47:53.325Z,67.97
2019-01-24T17:50:21.952Z,67.97
2019-01-24T17:52:50.630Z,68.13
2019-01-24T17:55:22.290Z,68.60
2019-01-24T17:57:51.196Z,68.56
2019-01-24T18:00:20.865Z,69.04
2019-01-24T18:02:49.484Z,69.32
2019-01-24T18:05:18.215Z,69.30
2019-01-24T18:07:46.943Z,69.30
2019-01-24T18:10:18.179Z,69.86
2019-01-24T18:12:46.767Z,70.00
2019-01-24T18:15:18.406Z,68.82
2019-01-24T18:17:47.004Z,69.63
2019-01-24T18:20:18.422Z,69.42
2019-01-24T18:22:48.506Z,69.79
2019-01-24T18:25:17.141Z,70.64
2019-01-24T18:27:45.722Z,70.74
2019-01-24T18:30:22.713Z,70.74
2019-01-24T18:32:51.308Z,70.27
2019-01-24T18:35:19.868Z,70.27
2019-01-24T18:37:48.418Z,70.63
2019-01-24T18:40:18.918Z,70.36
2019-01-24T18:42:47.813Z,70.53
2019-01-24T18:45:22.676Z,70.53
2019-01-24T18:47:51.247Z,71.07
2019-01-24T18:50:20.918Z,71.04
2019-01-24T18:52:49.555Z,71.04
2019-01-24T18:55:18.114Z,71.06
2019-01-24T18:57:47.923Z,71.06
2019-01-24T19:00:27.967Z,71.19
2019-01-24T19:02:56.556Z,71.60
2019-01-24T19:05:25.110Z,72.11
2019-01-24T19:07:53.708Z,70.83
2019-01-24T19:10:22.299Z,71.37
2019-01-24T19:12:50.866Z,71.62
2019-01-24T19:15:19.468Z,71.62
2019-01-24T19:17:48.112Z,73.73
2019-01-24T19:20:16.794Z,73.73
2019-01-24T19:22:45.376Z,72.12
2019-01-24T19:25:14.023Z,71.60
2019-01-24T19:27:42.589Z,71.24
2019-01-24T19:30:16.185Z,71.71
2019-01-24T19:32:44.784Z,71.57
2019-01-24T19:35:13.665Z,71.21
2019-01-24T19:37:42.229Z,70.49
2019-01-24T19:40:11.477Z,70.47
2019-01-24T19:42:40.044Z,70.69
2019-01-24T19:45:11.779Z,69.73
2019-01-24T19:47:40.397Z,69.34
2019-01-24T19:50:12.463Z,69.37
2019-01-24T19:52:41.029Z,69.22
2019-01-24T19:55:10.441Z,69.68
2019-01-24T19:57:39.119Z,68.57
2019-01-24T20:00:11.656Z,69.33
2019-01-24T20:02:40.219Z,68.86
2019-01-24T20:05:10.312Z,68.80
2019-01-24T20:07:38.880Z,68.65
2019-01-24T20:10:10.130Z,68.72
2019-01-24T20:12:38.727Z,69.17
2019-01-24T20:15:09.639Z,69.19
2019-01-24T20:17:38.194Z,68.77
2019-01-24T20:20:08.191Z,68.84
2019-01-24T20:22:36.751Z,69.13
2019-01-24T20:25:06.437Z,68.89
2019-01-24T20:27:35.064Z,69.16
2019-01-24T20:30:04.293Z,69.17
2019-01-24T20:32:32.852Z,68.30
2019-01-24T20:35:01.450Z,68.95
2019-01-24T20:37:30.011Z,68.66
2019-01-24T20:39:58.580Z,69.00
2019-01-24T20:42:27.166Z,69.52
2019-01-24T20:44:55.732Z,68.67
2019-01-24T20:47:24.553Z,68.77
2019-01-24T20:49:53.173Z,69.12
2019-01-24T20:52:21.732Z,69.06
2019-01-24T20:54:50.318Z,68.62
2019-01-24T20:57:18.943Z,68.87
2019-01-24T20:59:47.543Z,69.40
2019-01-24T21:02:16.105Z,69.65
2019-01-24T21:04:44.663Z,69.69
2019-01-24T21:07:13.259Z,69.15
2019-01-24T21:09:41.817Z,69.51
2019-01-24T21:12:10.709Z,69.27
2019-01-24T21:14:39.298Z,69.04
2019-01-24T21:17:07.871Z,69.58
2019-01-24T21:19:36.587Z,69.53
2019-01-24T21:22:05.171Z,69.38
2019-01-24T21:24:33.726Z,69.62
2019-01-24T21:27:02.340Z,69.09
2019-01-24T21:29:30.913Z,69.50
2019-01-24T21:31:59.484Z,70.43
2019-01-24T21:34:28.081Z,70.08
2019-01-24T21:36:56.656Z,69.68
2019-01-24T21:39:25.260Z,69.76
2019-01-24T21:41:53.863Z,69.62
2019-01-24T21:44:22.434Z,69.69
2019-01-24T21:46:51.003Z,70.17
2019-01-24T21:49:19.614Z,70.09
2019-01-24T21:51:48.634Z,69.96
2019-01-24T21:54:17.210Z,69.65
2019-01-24T21:56:45.839Z,69.54
2019-01-24T21:59:14.406Z,70.09
2019-01-24T22:01:42.972Z,69.88
2019-01-24T22:04:11.576Z,69.26
2019-01-24T22:06:40.140Z,69.00
2019-01-24T22:09:09.676Z,69.27
2019-01-24T22:11:38.240Z,69.17
2019-01-24T22:14:06.807Z,70.14
2019-01-24T22:16:35.407Z,69.72
2019-01-24T22:19:04.058Z,69.59
2019-01-24T22:21:32.636Z,69.60
2019-01-24T22:24:01.219Z,69.58
2019-01-24T22:26:29.810Z,70.10
2019-01-24T22:28:58.419Z,70.05
2019-01-24T22:31:27.000Z,70.08
2019-01-24T22:33:55.592Z,69.96
2019-01-24T22:36:24.199Z,69.85
2019-01-24T22:38:52.771Z,69.54
2019-01-24T22:41:21.340Z,70.08
2019-01-24T22:43:49.949Z,70.86
2019-01-24T22:46:18.513Z,70.58
2019-01-24T22:48:47.107Z,70.13
2019-01-24T22:51:15.698Z,70.43
2019-01-24T22:53:44.304Z,70.10
2019-01-24T22:56:12.907Z,70.19
2019-01-24T22:58:41.502Z,70.27
2019-01-24T23:01:40.575Z,70.15
2019-01-24T23:04:14.701Z,70.35
2019-01-24T23:06:43.638Z,70.32
2019-01-24T23:09:12.251Z,70.36
2019-01-24T23:11:40.820Z,70.48
2019-01-24T23:14:09.375Z,70.19
2019-01-24T23:16:38.359Z,70.10
2019-01-24T23:19:06.941Z,69.92
2019-01-24T23:21:35.495Z,69.94
2019-01-24T23:24:04.087Z,70.43
2019-01-24T23:26:32.653Z,70.07
2019-01-24T23:29:01.248Z,69.93
2019-01-24T23:31:29.817Z,70.29
2019-01-24T23:33:58.439Z,70.19
2019-01-24T23:36:27.044Z,70.06
2019-01-24T23:38:55.616Z,70.14
2019-01-24T23:41:24.179Z,70.55
2019-01-24T23:43:52.782Z,70.49
2019-01-24T23:46:21.383Z,70.11
2019-01-24T23:48:49.953Z,69.99
2019-01-24T23:51:18.524Z,69.85
2019-01-24T23:53:47.131Z,70.02
2019-01-24T23:56:15.699Z,70.04
2019-01-24T23:58:44.261Z,70.03
